createdAt,value
2022-12-14T00:01:52.254Z,67.30
2022-12-14T00:04:20.570Z,62.40
2022-12-14T00:06:47.771Z,65.90
2022-12-14T00:09:15.141Z,66.28
2022-12-14T00:11:42.372Z,65.25
2022-12-14T00:14:09.517Z,62.22
2022-12-14T00:16:36.920Z,63.28
2022-12-14T00:19:05.614Z,65.68
2022-12-14T00:21:33.880Z,64.13
2022-12-14T00:24:01.266Z,64.00
2022-12-14T00:26:32.726Z,63.22
2022-12-14T00:29:02.058Z,59.65
2022-12-14T00:31:32.528Z,62.70
2022-12-14T00:34:01.149Z,64.03
2022-12-14T00:36:31.459Z,68.75
2022-12-14T00:38:59.621Z,60.83
2022-12-14T00:41:26.905Z,64.93
2022-12-14T00:43:54.073Z,63.17
2022-12-14T00:46:21.277Z,68.05
2022-12-14T00:48:48.531Z,59.92
2022-12-14T00:51:15.786Z,65.35
2022-12-14T00:53:44.962Z,62.47
2022-12-14T00:56:12.812Z,60.97
2022-12-14T00:58:40.372Z,61.97
2022-12-14T01:01:14.626Z,57.67
2022-12-14T01:03:42.426Z,63.38
2022-12-14T01:06:22.980Z,64.60
2022-12-14T01:08:50.522Z,57.75
2022-12-14T01:11:17.831Z,58.72
2022-12-14T01:13:45.112Z,64.25
2022-12-14T01:16:17.197Z,59.72
2022-12-14T01:18:44.415Z,58.67
2022-12-14T01:21:24.215Z,64.15
2022-12-14T01:24:03.825Z,65.60
2022-12-14T01:26:35.777Z,62.95
2022-12-14T01:29:04.529Z,62.42
2022-12-14T01:31:36.699Z,64.22
2022-12-14T01:34:05.532Z,61.47
2022-12-14T01:36:35.298Z,63.15
2022-12-14T01:39:13.719Z,61.40
2022-12-14T01:41:52.845Z,58.20
2022-12-14T01:44:19.839Z,62.42
2022-12-14T01:47:05.106Z,61.15
2022-12-14T01:50:30.461Z,62.40
2022-12-14T01:53:10.497Z,67.75
2022-12-14T01:55:45.260Z,63.13
2022-12-14T01:58:25.630Z,63.22
2022-12-14T02:01:00.103Z,60.65
2022-12-14T02:03:36.924Z,60.20
2022-12-14T02:06:21.083Z,61.83
2022-12-14T02:08:51.130Z,58.67
2022-12-14T02:11:56.990Z,62.63
2022-12-14T02:14:24.832Z,60.28
2022-12-14T02:16:55.888Z,63.15
2022-12-14T02:19:23.321Z,60.92
2022-12-14T02:22:31.368Z,60.30
2022-12-14T02:26:04.142Z,61.95
2022-12-14T02:29:17.805Z,57.63
2022-12-14T02:32:37.688Z,69.53
2022-12-14T02:35:37.351Z,58.28
2022-12-14T02:38:42.180Z,66.65
2022-12-14T02:41:19.137Z,59.97
2022-12-14T02:44:29.185Z,63.63
2022-12-14T02:47:40.487Z,64.15
2022-12-14T02:50:32.034Z,58.10
2022-12-14T02:53:31.965Z,63.63
2022-12-14T02:56:07.471Z,57.17
2022-12-14T02:58:50.662Z,57.08
2022-12-14T03:01:27.887Z,64.45
2022-12-14T03:03:55.725Z,61.65
2022-12-14T03:06:28.107Z,65.63
2022-12-14T03:09:14.820Z,61.40
2022-12-14T03:12:10.673Z,59.13
2022-12-14T03:14:47.781Z,59.95
2022-12-14T03:17:22.193Z,65.80
2022-12-14T03:20:14.738Z,64.40
2022-12-14T03:23:12.355Z,73.68
2022-12-14T03:26:20.109Z,67.60
2022-12-14T03:28:55.057Z,63.38
2022-12-14T03:31:43.535Z,66.68
2022-12-14T03:34:22.397Z,65.40
2022-12-14T03:37:18.481Z,66.70
2022-12-14T03:39:47.427Z,65.05
2022-12-14T03:42:40.875Z,64.22
2022-12-14T03:45:40.186Z,65.25
2022-12-14T03:48:50.087Z,61.45
2022-12-14T03:51:37.596Z,53.50
2022-12-14T03:54:16.154Z,49.53
2022-12-14T03:56:53.245Z,51.17
2022-12-14T03:59:40.670Z,57.33
2022-12-14T04:02:42.613Z,50.55
2022-12-14T04:05:37.985Z,49.65
2022-12-14T04:09:18.147Z,49.80
2022-12-14T04:12:19.951Z,48.45
2022-12-14T04:15:25.889Z,61.35
2022-12-14T04:18:18.391Z,53.33
2022-12-14T04:20:57.111Z,51.85
2022-12-14T04:23:58.303Z,46.88
2022-12-14T04:26:34.061Z,46.70
2022-12-14T04:29:31.139Z,52.35
2022-12-14T04:32:37.208Z,48.38
2022-12-14T04:35:47.615Z,52.70
2022-12-14T04:38:23.056Z,46.30
2022-12-14T04:40:59.080Z,52.97
2022-12-14T04:43:35.544Z,44.53
2022-12-14T04:46:22.426Z,48.25
2022-12-14T04:49:20.236Z,50.58
2022-12-14T04:52:16.662Z,54.47
2022-12-14T04:55:03.616Z,48.60
2022-12-14T04:58:02.842Z,47.15
2022-12-14T05:00:36.217Z,38.90
2022-12-14T05:03:17.029Z,44.35
2022-12-14T05:06:21.698Z,45.67
2022-12-14T05:09:29.988Z,40.40
2022-12-14T05:12:07.701Z,42.03
2022-12-14T05:15:06.201Z,38.67
2022-12-14T05:17:38.693Z,45.70
2022-12-14T05:20:14.696Z,46.42
2022-12-14T05:22:42.511Z,45.05
2022-12-14T05:25:09.819Z,34.67
2022-12-14T05:27:37.189Z,46.72
2022-12-14T05:30:06.647Z,36.47
2022-12-14T05:32:34.367Z,41.30
2022-12-14T05:35:03.870Z,44.50
2022-12-14T05:37:31.188Z,43.33
2022-12-14T05:39:58.485Z,43.30
2022-12-14T05:42:25.796Z,44.30
2022-12-14T05:44:52.950Z,46.42
2022-12-14T05:47:20.058Z,46.55
2022-12-14T05:49:49.298Z,46.78
2022-12-14T05:52:17.537Z,50.15
2022-12-14T05:54:44.760Z,47.95
2022-12-14T05:57:12.951Z,48.05
2022-12-14T05:59:40.178Z,52.67
2022-12-14T06:02:07.766Z,48.53
2022-12-14T06:04:35.368Z,53.40
2022-12-14T06:07:02.760Z,51.22
2022-12-14T06:09:29.944Z,47.85
2022-12-14T06:11:57.072Z,50.97
2022-12-14T06:14:25.304Z,47.50
2022-12-14T06:16:52.851Z,50.38
2022-12-14T06:19:20.393Z,53.88
2022-12-14T06:21:47.718Z,59.50
2022-12-14T06:24:15.358Z,53.67
2022-12-14T06:26:42.845Z,51.80
2022-12-14T06:29:19.975Z,56.70
2022-12-14T06:31:49.431Z,53.03
2022-12-14T06:34:18.884Z,54.50
2022-12-14T06:36:47.062Z,58.25
2022-12-14T06:39:16.959Z,52.22
2022-12-14T06:41:49.078Z,56.00
2022-12-14T06:44:16.947Z,58.08
2022-12-14T06:46:44.785Z,54.53
2022-12-14T06:49:15.423Z,53.88
2022-12-14T06:51:44.288Z,55.55
2022-12-14T06:54:13.503Z,48.78
2022-12-14T06:56:42.920Z,51.58
2022-12-14T06:59:11.583Z,51.38
2022-12-14T07:01:40.777Z,51.75
2022-12-14T07:04:09.684Z,54.88
2022-12-14T07:06:42.531Z,53.83
2022-12-14T07:09:14.527Z,57.95
2022-12-14T07:11:42.081Z,55.00
2022-12-14T07:14:17.529Z,55.22
2022-12-14T07:16:48.331Z,55.90
2022-12-14T07:19:17.676Z,53.60
2022-12-14T07:21:45.026Z,53.85
2022-12-14T07:24:12.330Z,52.65
2022-12-14T07:26:39.555Z,54.22
2022-12-14T07:29:06.792Z,52.00
2022-12-14T07:31:34.146Z,55.50
2022-12-14T07:34:02.530Z,62.38
2022-12-14T07:36:30.621Z,60.05
2022-12-14T07:38:58.030Z,56.35
2022-12-14T07:41:31.052Z,60.25
2022-12-14T07:44:00.905Z,56.22
2022-12-14T07:46:30.671Z,56.22
2022-12-14T07:49:02.345Z,58.83
2022-12-14T07:51:37.481Z,56.47
2022-12-14T07:54:07.023Z,59.40
2022-12-14T07:56:40.419Z,55.67
2022-12-14T07:59:15.162Z,61.65
2022-12-14T08:01:43.736Z,60.33
2022-12-14T08:04:18.375Z,54.75
2022-12-14T08:06:47.779Z,55.88
2022-12-14T08:09:17.363Z,60.03
2022-12-14T08:11:44.867Z,59.95
2022-12-14T08:14:19.011Z,66.95
2022-12-14T08:16:49.223Z,65.47
2022-12-14T08:19:19.543Z,60.67
2022-12-14T08:21:47.316Z,57.30
2022-12-14T08:24:16.888Z,54.42
2022-12-14T08:26:47.270Z,56.60
2022-12-14T08:29:17.513Z,60.78
2022-12-14T08:31:44.875Z,53.83
2022-12-14T08:34:12.268Z,57.75
2022-12-14T08:36:41.984Z,60.10
2022-12-14T08:39:10.988Z,68.18
2022-12-14T08:41:38.231Z,63.28
2022-12-14T08:44:06.214Z,57.38
2022-12-14T08:46:37.681Z,58.67
2022-12-14T08:49:05.069Z,56.40
2022-12-14T08:51:32.594Z,60.58
2022-12-14T08:54:00.888Z,62.58
2022-12-14T08:56:29.185Z,54.45
2022-12-14T08:58:57.504Z,61.00
2022-12-14T09:01:34.108Z,61.75
2022-12-14T09:04:08.511Z,62.08
2022-12-14T09:06:39.485Z,63.83
2022-12-14T09:09:15.599Z,57.63
2022-12-14T09:11:45.466Z,60.47
2022-12-14T09:14:13.016Z,57.53
2022-12-14T09:16:40.889Z,60.42
2022-12-14T09:19:08.412Z,58.28
2022-12-14T09:21:35.722Z,61.83
2022-12-14T09:24:03.204Z,64.20
2022-12-14T09:26:30.487Z,65.78
2022-12-14T09:28:58.362Z,56.97
2022-12-14T09:31:28.369Z,64.30
2022-12-14T09:33:56.901Z,62.25
2022-12-14T09:36:28.138Z,57.97
2022-12-14T09:38:57.389Z,66.18
2022-12-14T09:41:33.940Z,62.38
2022-12-14T09:44:25.785Z,60.00
2022-12-14T09:47:51.525Z,62.95
2022-12-14T09:50:22.854Z,57.85
2022-12-14T09:53:06.158Z,61.13
2022-12-14T09:55:43.636Z,54.95
2022-12-14T09:58:25.659Z,61.38
2022-12-14T10:01:23.743Z,58.28
2022-12-14T10:04:17.402Z,57.05
2022-12-14T10:07:06.564Z,57.65
2022-12-14T10:10:00.817Z,67.65
2022-12-14T10:12:33.951Z,55.88
2022-12-14T10:15:29.297Z,48.25
2022-12-14T10:21:28.257Z,51.63
2022-12-14T10:24:15.993Z,46.88
2022-12-14T10:26:52.762Z,54.40
2022-12-14T10:29:37.779Z,50.65
2022-12-14T10:32:39.935Z,49.08
2022-12-14T10:35:22.925Z,50.20
2022-12-14T10:38:06.373Z,54.13
2022-12-14T10:40:35.395Z,50.45
2022-12-14T10:43:26.547Z,55.45
2022-12-14T10:46:22.886Z,46.63
2022-12-14T10:49:50.849Z,46.80
2022-12-14T10:55:02.484Z,44.38
2022-12-14T10:57:29.808Z,44.72
2022-12-14T11:00:08.359Z,46.28
2022-12-14T11:02:43.580Z,43.05
2022-12-14T11:05:37.948Z,45.97
2022-12-14T11:08:07.673Z,50.85
2022-12-14T11:10:39.547Z,50.28
2022-12-14T11:13:09.442Z,52.42
2022-12-14T11:15:49.536Z,49.72
2022-12-14T11:18:16.649Z,51.75
2022-12-14T11:21:02.141Z,53.78
2022-12-14T11:23:38.989Z,54.85
2022-12-14T11:26:40.765Z,54.38
2022-12-14T11:29:22.044Z,54.70
2022-12-14T11:31:53.800Z,51.60
2022-12-14T11:34:35.880Z,55.63
2022-12-14T11:37:29.941Z,58.17
2022-12-14T11:40:05.745Z,54.83
2022-12-14T11:42:33.979Z,54.85
2022-12-14T11:45:26.008Z,50.17
2022-12-14T11:48:22.545Z,94.53
2022-12-14T11:50:53.004Z,61.72
2022-12-14T11:53:22.984Z,57.35
2022-12-14T11:55:58.152Z,55.88
2022-12-14T11:58:34.654Z,59.03
2022-12-14T12:01:26.048Z,56.65
2022-12-14T12:03:58.489Z,55.08
2022-12-14T12:06:29.400Z,52.63
2022-12-14T12:09:00.981Z,55.60
2022-12-14T12:11:33.774Z,53.88
2022-12-14T12:14:33.758Z,53.13
2022-12-14T12:17:01.379Z,57.35
2022-12-14T12:19:37.183Z,57.85
2022-12-14T12:22:09.246Z,52.92
2022-12-14T12:25:25.680Z,52.05
2022-12-14T12:28:06.613Z,51.67
2022-12-14T12:30:40.304Z,54.85
2022-12-14T12:33:41.717Z,48.05
2022-12-14T12:36:10.050Z,52.10
2022-12-14T12:39:06.530Z,49.90
2022-12-14T12:42:22.508Z,46.10
2022-12-14T12:45:20.513Z,46.92
2022-12-14T12:48:05.797Z,48.95
2022-12-14T12:50:42.120Z,44.80
2022-12-14T12:53:30.263Z,45.10
2022-12-14T12:56:25.164Z,47.17
2022-12-14T12:58:53.708Z,47.10
2022-12-14T13:01:31.787Z,48.67
2022-12-14T13:04:05.039Z,47.25
2022-12-14T13:06:49.933Z,43.55
2022-12-14T13:09:43.277Z,47.67
2022-12-14T13:12:47.926Z,42.85
2022-12-14T13:15:41.017Z,45.10
2022-12-14T13:18:59.511Z,48.78
2022-12-14T13:21:36.302Z,45.05
2022-12-14T13:24:06.675Z,42.35
2022-12-14T13:27:35.310Z,43.63
2022-12-14T13:30:22.620Z,46.65
2022-12-14T13:33:17.372Z,47.05
2022-12-14T13:36:40.804Z,41.08
2022-12-14T13:39:10.926Z,42.42
2022-12-14T13:42:12.883Z,46.47
2022-12-14T13:45:03.787Z,53.25
2022-12-14T13:47:41.455Z,48.35
2022-12-14T13:50:37.176Z,48.53
2022-12-14T13:53:18.661Z,48.88
2022-12-14T13:55:58.375Z,50.53
2022-12-14T13:58:42.651Z,47.10
2022-12-14T14:01:33.644Z,47.63
2022-12-14T14:04:22.403Z,49.13
2022-12-14T14:06:55.834Z,46.30
2022-12-14T14:10:01.163Z,41.30
2022-12-14T14:12:44.823Z,45.95
2022-12-14T14:15:38.190Z,46.53
2022-12-14T14:18:20.207Z,46.60
2022-12-14T14:21:12.846Z,49.00
2022-12-14T14:24:20.160Z,52.55
2022-12-14T14:27:19.409Z,48.70
2022-12-14T14:29:51.788Z,49.08
2022-12-14T14:32:40.261Z,50.03
2022-12-14T14:35:34.786Z,52.45
2022-12-14T14:38:31.550Z,48.67
2022-12-14T14:41:18.409Z,50.88
2022-12-14T14:44:04.624Z,49.92
2022-12-14T14:46:40.663Z,48.53
2022-12-14T14:49:29.095Z,46.90
2022-12-14T14:51:56.999Z,55.90
2022-12-14T14:58:39.025Z,51.20
2022-12-14T15:01:06.532Z,55.10
2022-12-14T15:04:02.092Z,52.72
2022-12-14T15:06:37.498Z,47.80
2022-12-14T15:09:08.837Z,52.00
2022-12-14T15:11:54.538Z,50.70
2022-12-14T15:14:48.813Z,64.43
2022-12-14T15:17:21.710Z,54.83
2022-12-14T15:19:52.956Z,53.80
2022-12-14T15:22:24.940Z,54.67
2022-12-14T15:24:56.549Z,51.13
2022-12-14T15:27:36.232Z,55.70
2022-12-14T15:30:12.612Z,50.33
2022-12-14T15:32:47.641Z,53.33
2022-12-14T15:35:24.151Z,56.17
2022-12-14T15:38:00.196Z,52.28
2022-12-14T15:40:30.784Z,51.97
2022-12-14T15:43:17.029Z,50.17
2022-12-14T15:45:51.654Z,54.33
2022-12-14T15:48:24.840Z,55.67
2022-12-14T15:51:11.660Z,56.88
2022-12-14T15:53:53.553Z,55.08
2022-12-14T15:56:45.282Z,49.83
2022-12-14T15:59:33.933Z,61.65
2022-12-14T16:02:29.091Z,62.83
2022-12-14T16:05:00.735Z,57.25
2022-12-14T16:07:41.341Z,62.70
2022-12-14T16:10:33.035Z,57.28
2022-12-14T16:13:24.328Z,63.80
2022-12-14T16:15:52.810Z,54.40
2022-12-14T16:18:20.614Z,60.05
2022-12-14T16:20:59.733Z,59.42
2022-12-14T16:23:37.932Z,57.75
2022-12-14T16:26:15.192Z,66.93
2022-12-14T16:28:42.935Z,64.70
2022-12-14T16:31:24.343Z,63.47
2022-12-14T16:34:20.297Z,60.08
2022-12-14T16:37:22.808Z,66.82
2022-12-14T16:39:47.645Z,58.70
2022-12-14T16:42:27.087Z,55.47
2022-12-14T16:44:54.678Z,60.20
2022-12-14T16:47:35.266Z,55.47
2022-12-14T16:50:02.466Z,63.55
2022-12-14T16:52:38.002Z,47.90
2022-12-14T16:55:12.215Z,52.53
2022-12-14T16:57:48.427Z,58.25
2022-12-14T17:00:32.461Z,59.78
2022-12-14T17:03:08.204Z,56.63
2022-12-14T17:05:41.792Z,55.55
2022-12-14T17:08:11.556Z,57.30
2022-12-14T17:10:39.150Z,58.08
2022-12-14T17:13:06.421Z,56.55
2022-12-14T17:15:35.082Z,59.05
2022-12-14T17:18:04.682Z,59.30
2022-12-14T17:20:39.342Z,57.08
2022-12-14T17:23:15.145Z,61.63
2022-12-14T17:25:46.288Z,57.50
2022-12-14T17:28:31.030Z,58.63
2022-12-14T17:31:01.650Z,62.78
2022-12-14T17:33:31.704Z,60.80
2022-12-14T17:35:59.459Z,61.78
2022-12-14T17:38:26.702Z,56.47
2022-12-14T17:40:54.406Z,62.95
2022-12-14T17:43:27.782Z,69.40
2022-12-14T17:45:55.521Z,62.83
2022-12-14T17:48:22.817Z,63.75
2022-12-14T17:50:51.226Z,57.38
2022-12-14T17:53:30.191Z,60.55
2022-12-14T17:55:58.663Z,66.10
2022-12-14T17:58:25.982Z,64.40
2022-12-14T18:01:03.279Z,63.45
2022-12-14T18:03:36.757Z,65.65
2022-12-14T18:06:04.817Z,65.20
2022-12-14T18:08:32.101Z,67.45
2022-12-14T18:11:11.759Z,71.35
2022-12-14T18:13:42.119Z,71.38
2022-12-14T18:16:20.968Z,63.08
2022-12-14T18:18:49.238Z,63.75
2022-12-14T18:21:23.194Z,61.15
2022-12-14T18:23:50.842Z,64.45
2022-12-14T18:26:22.064Z,63.28
2022-12-14T18:28:52.047Z,67.90
2022-12-14T18:31:32.456Z,67.60
2022-12-14T18:33:59.759Z,67.20
2022-12-14T18:36:27.245Z,63.63
2022-12-14T18:38:54.836Z,68.93
2022-12-14T18:41:25.682Z,63.90
2022-12-14T18:43:54.330Z,73.45
2022-12-14T18:46:22.059Z,71.20
2022-12-14T18:48:49.693Z,78.05
2022-12-14T18:51:23.608Z,78.25
2022-12-14T18:53:55.056Z,67.18
2022-12-14T18:56:25.311Z,78.43
2022-12-14T18:58:52.787Z,78.18
2022-12-14T19:01:24.778Z,73.60
2022-12-14T19:03:52.364Z,75.55
2022-12-14T19:09:14.207Z,82.95
2022-12-14T19:11:42.392Z,80.40
2022-12-14T19:14:10.657Z,82.63
2022-12-14T19:16:37.997Z,81.28
2022-12-14T19:19:05.349Z,83.10
2022-12-14T19:21:32.542Z,78.28
2022-12-14T19:24:00.058Z,76.03
2022-12-14T19:26:28.937Z,89.40
2022-12-14T19:28:56.504Z,81.50
2022-12-14T19:31:23.762Z,86.60
2022-12-14T19:33:51.044Z,83.97
2022-12-14T19:36:18.314Z,82.60
2022-12-14T19:38:49.175Z,86.10
2022-12-14T19:41:20.417Z,78.45
2022-12-14T19:43:48.124Z,81.88
2022-12-14T19:46:17.574Z,84.85
2022-12-14T19:48:45.297Z,90.63
2022-12-14T19:51:14.202Z,88.25
2022-12-14T19:53:45.326Z,85.20
2022-12-14T19:56:17.451Z,88.10
2022-12-14T19:58:45.968Z,93.32
2022-12-14T20:01:16.664Z,89.70
2022-12-14T20:03:44.369Z,90.72
2022-12-14T20:06:11.731Z,94.65
2022-12-14T20:08:38.977Z,83.75
2022-12-14T20:11:09.768Z,87.90
2022-12-14T20:13:37.792Z,84.68
2022-12-14T20:16:05.945Z,96.38
2022-12-14T20:18:33.561Z,118.40
2022-12-14T20:21:08.658Z,103.82
2022-12-14T20:23:38.610Z,105.07
2022-12-14T20:26:18.748Z,108.55
2022-12-14T20:28:53.125Z,103.15
2022-12-14T20:31:22.260Z,94.03
2022-12-14T20:33:50.285Z,92.05
2022-12-14T20:36:18.821Z,95.97
2022-12-14T20:38:49.335Z,90.25
2022-12-14T20:41:18.312Z,96.28
2022-12-14T20:43:45.932Z,93.30
2022-12-14T20:46:40.562Z,91.78
2022-12-14T20:49:16.379Z,90.40
2022-12-14T20:51:46.572Z,87.05
2022-12-14T20:54:17.957Z,86.35
2022-12-14T20:56:49.441Z,90.97
2022-12-14T20:59:17.521Z,89.95
2022-12-14T21:01:51.777Z,90.78
2022-12-14T21:04:20.993Z,89.78
2022-12-14T21:06:48.645Z,84.45
2022-12-14T21:09:16.028Z,94.50
2022-12-14T21:12:06.158Z,89.60
2022-12-14T21:14:44.628Z,96.63
2022-12-14T21:17:11.838Z,86.57
2022-12-14T21:19:40.164Z,88.20
2022-12-14T21:22:14.024Z,83.95
2022-12-14T21:27:32.302Z,91.35
2022-12-14T21:30:00.949Z,93.07
2022-12-14T21:32:28.391Z,97.85
2022-12-14T21:34:55.659Z,80.95
2022-12-14T21:37:23.611Z,96.18
2022-12-14T21:39:55.140Z,91.53
2022-12-14T21:42:24.557Z,91.70
2022-12-14T21:44:54.221Z,96.28
2022-12-14T21:47:28.354Z,103.50
2022-12-14T21:49:56.399Z,124.00
2022-12-14T21:52:27.653Z,116.78
2022-12-14T21:54:55.081Z,117.78
2022-12-14T21:57:49.983Z,115.82
2022-12-14T22:00:19.608Z,122.32
2022-12-14T22:02:46.885Z,117.93
2022-12-14T22:05:14.183Z,97.68
2022-12-14T22:07:41.828Z,108.85
2022-12-14T22:10:09.091Z,108.67
2022-12-14T22:12:36.312Z,106.15
2022-12-14T22:15:03.945Z,103.38
2022-12-14T22:17:31.126Z,103.30
2022-12-14T22:19:59.360Z,99.05
2022-12-14T22:22:26.548Z,103.63
2022-12-14T22:24:53.705Z,101.00
2022-12-14T22:27:21.199Z,101.75
2022-12-14T22:29:48.432Z,101.38
2022-12-14T22:32:15.764Z,109.20
2022-12-14T22:34:43.138Z,103.45
2022-12-14T22:37:16.743Z,101.75
2022-12-14T22:39:44.236Z,103.53
2022-12-14T22:42:16.019Z,106.65
2022-12-14T22:44:43.678Z,96.72
2022-12-14T22:47:11.289Z,101.18
2022-12-14T22:49:38.519Z,93.70
2022-12-14T22:52:05.777Z,105.03
2022-12-14T22:54:32.957Z,106.47
2022-12-14T22:57:11.205Z,95.47
2022-12-14T23:00:00.086Z,102.47
2022-12-14T23:02:30.033Z,98.47
2022-12-14T23:04:57.561Z,102.28
2022-12-14T23:07:24.861Z,108.55
2022-12-14T23:10:10.533Z,106.47
2022-12-14T23:12:56.633Z,100.85
2022-12-14T23:18:28.105Z,92.82
2022-12-14T23:21:15.053Z,98.20
2022-12-14T23:24:04.441Z,103.43
2022-12-14T23:26:51.936Z,97.43
2022-12-14T23:29:38.024Z,113.97
2022-12-14T23:35:09.933Z,99.25
2022-12-14T23:40:41.481Z,94.53
2022-12-14T23:43:36.636Z,99.82
2022-12-14T23:46:24.211Z,103.28
2022-12-14T23:49:15.379Z,99.03
2022-12-14T23:52:02.115Z,93.65
2022-12-14T23:57:34.580Z,97.28
